Time;durP1;ratioP1;P1;durP2;ratioP2;P2;SDS_P1;SDS_P2;PMS_P1;PMS_P2;Temp;Humidity;BMP_temperature;BMP_pressure;BME280_temperature;BME280_humidity;BME280_pressure;Samples;Min_cycle;Max_cycle;Signal;HPM_P1;HPM_P2
2024/02/04 00:01:39;;;;;;;0.10;0.10;;;5.00;99.90;;;;;;5005482;28;20038;-83
2024/02/04 00:04:05;;;;;;;0.30;0.30;;;5.10;99.90;;;;;;5010095;28;20070;-84
2024/02/04 00:06:31;;;;;;;0.10;0.10;;;5.20;99.90;;;;;;5006165;28;20053;-85
2024/02/04 00:08:57;;;;;;;2.30;2.10;;;5.10;99.90;;;;;;5008076;28;20045;-86
2024/02/04 00:11:23;;;;;;;0.32;0.32;;;5.10;99.90;;;;;;5012687;28;20109;-85
2024/02/04 00:13:49;;;;;;;2.08;1.88;;;5.10;99.90;;;;;;5008637;28;20026;-84
2024/02/04 00:16:15;;;;;;;0.10;0.10;;;5.10;99.90;;;;;;5007747;28;20036;-84
2024/02/04 00:18:41;;;;;;;0.63;0.63;;;5.20;99.90;;;;;;5004993;28;20129;-84
2024/02/04 00:21:06;;;;;;;0.10;0.10;;;5.10;99.90;;;;;;5005503;28;20030;-85
2024/02/04 00:23:32;;;;;;;0.25;0.25;;;5.00;99.90;;;;;;5013891;28;20033;-86
2024/02/04 00:25:58;;;;;;;0.10;0.10;;;5.00;99.90;;;;;;5004870;28;20033;-86
2024/02/04 00:28:23;;;;;;;0.10;0.10;;;4.90;99.90;;;;;;5010661;28;20030;-86
2024/02/04 00:30:49;;;;;;;0.20;0.20;;;4.80;99.90;;;;;;5007603;28;20053;-87
2024/02/04 00:33:15;;;;;;;0.50;0.50;;;4.80;99.90;;;;;;5009533;28;20213;-86
2024/02/04 00:35:42;;;;;;;1.33;1.23;;;4.80;99.90;;;;;;5007109;28;20033;-84
2024/02/04 00:38:08;;;;;;;2.47;1.30;;;4.80;99.90;;;;;;5008513;28;20037;-84
2024/02/04 00:40:34;;;;;;;0.45;0.45;;;4.80;99.90;;;;;;5005717;28;20022;-86
2024/02/04 00:43:00;;;;;;;0.20;0.20;;;4.80;99.90;;;;;;5011524;28;20053;-86
2024/02/04 00:45:26;;;;;;;0.98;0.98;;;4.90;99.90;;;;;;5038279;28;20125;-86
2024/02/04 00:47:52;;;;;;;0.35;0.35;;;4.80;99.90;;;;;;5010519;28;20026;-86
2024/02/04 00:50:17;;;;;;;0.70;0.70;;;4.80;99.90;;;;;;5009240;28;20089;-87
2024/02/04 00:52:43;;;;;;;0.10;0.10;;;4.80;99.90;;;;;;5010503;28;20109;-86
2024/02/04 00:55:09;;;;;;;0.10;0.10;;;5.00;99.90;;;;;;5011810;28;20639;-86
2024/02/04 00:57:35;;;;;;;0.40;0.40;;;5.00;99.90;;;;;;5010230;28;20030;-84
2024/02/04 01:00:01;;;;;;;0.28;0.28;;;5.00;99.90;;;;;;5003458;28;20046;-82
2024/02/04 01:02:27;;;;;;;1.10;0.63;;;5.00;99.90;;;;;;5008918;28;20026;-83
2024/02/04 01:04:52;;;;;;;0.10;0.10;;;5.00;99.90;;;;;;5004877;28;21038;-83
2024/02/04 01:07:18;;;;;;;0.10;0.10;;;5.00;99.90;;;;;;5006791;28;20096;-83
2024/02/04 01:09:44;;;;;;;0.10;0.10;;;5.00;99.90;;;;;;5009348;28;20037;-85
2024/02/04 01:12:09;;;;;;;0.10;0.10;;;5.10;99.90;;;;;;5009771;28;20026;-84
2024/02/04 01:14:35;;;;;;;0.20;0.20;;;4.80;99.90;;;;;;5010478;28;20280;-84
2024/02/04 01:17:01;;;;;;;0.10;0.10;;;4.90;99.90;;;;;;5012498;28;20836;-85
2024/02/04 01:19:26;;;;;;;0.10;0.10;;;5.10;99.90;;;;;;5010854;28;20121;-86
2024/02/04 01:21:52;;;;;;;0.65;0.65;;;5.10;99.90;;;;;;5011440;28;20037;-86
2024/02/04 01:24:18;;;;;;;0.10;0.10;;;5.00;99.90;;;;;;5009020;28;20034;-84
2024/02/04 01:26:43;;;;;;;0.10;0.10;;;4.80;99.90;;;;;;5013640;28;20041;-84
2024/02/04 01:29:09;;;;;;;0.90;0.90;;;4.80;99.90;;;;;;5016224;28;20046;-87
2024/02/04 01:31:35;;;;;;;0.10;0.10;;;4.90;99.90;;;;;;5008087;28;20045;-86
2024/02/04 01:34:00;;;;;;;0.10;0.10;;;5.00;99.90;;;;;;5010690;28;20010;-88
2024/02/04 01:36:26;;;;;;;0.20;0.20;;;4.80;99.90;;;;;;5012595;28;20030;-86
2024/02/04 01:38:52;;;;;;;0.10;0.10;;;4.70;99.90;;;;;;5008537;28;20022;-85
2024/02/04 01:41:17;;;;;;;0.10;0.10;;;4.90;99.90;;;;;;5010526;28;20029;-85
2024/02/04 01:43:43;;;;;;;0.10;0.10;;;4.90;99.90;;;;;;5010523;28;20046;-86
2024/02/04 01:46:10;;;;;;;0.10;0.10;;;4.90;99.90;;;;;;5012691;28;20431;-85
2024/02/04 01:48:36;;;;;;;0.10;0.10;;;5.00;99.90;;;;;;5008846;28;20033;-84
2024/02/04 01:51:03;;;;;;;0.30;0.30;;;4.90;99.90;;;;;;5011482;28;20092;-86
2024/02/04 01:53:32;;;;;;;0.10;0.10;;;4.80;99.90;;;;;;5013646;28;20499;-86
2024/02/04 01:55:58;;;;;;;0.10;0.10;;;4.80;99.90;;;;;;5011503;28;20026;-86
2024/02/04 01:58:24;;;;;;;0.13;0.13;;;4.60;99.90;;;;;;5005334;28;20069;-84
2024/02/04 02:00:51;;;;;;;0.10;0.10;;;4.50;99.90;;;;;;5011084;28;20059;-84
2024/02/04 02:03:17;;;;;;;0.10;0.10;;;4.30;99.90;;;;;;5011028;28;20033;-85
2024/02/04 02:05:43;;;;;;;0.10;0.10;;;4.20;99.90;;;;;;5011830;28;20029;-85
2024/02/04 02:08:09;;;;;;;0.10;0.10;;;4.40;99.90;;;;;;5011477;28;20037;-83
2024/02/04 02:10:35;;;;;;;0.10;0.10;;;4.50;99.90;;;;;;5008702;28;20304;-84
2024/02/04 02:13:23;;;;;;;2.77;2.30;;;4.70;99.90;;;;;;5012819;28;20021;-85
2024/02/04 02:15:56;;;;;;;0.10;0.10;;;4.60;99.90;;;;;;5006717;28;20631;-88
2024/02/04 02:18:38;;;;;;;0.15;0.15;;;4.60;99.90;;;;;;5008391;28;20044;-87
2024/02/04 02:21:22;;;;;;;0.10;0.10;;;4.30;99.90;;;;;;5008307;28;20771;-87
2024/02/04 02:24:26;;;;;;;0.10;0.10;;;4.40;99.90;;;;;;5007604;28;20034;-87
2024/02/04 02:26:53;;;;;;;0.20;0.20;;;4.50;99.90;;;;;;5041099;28;20029;-87
2024/02/04 02:29:18;;;;;;;0.10;0.10;;;4.60;99.90;;;;;;5011373;28;20081;-86
2024/02/04 02:31:45;;;;;;;0.60;0.60;;;4.40;99.90;;;;;;5005139;28;20688;-87
2024/02/04 02:34:11;;;;;;;0.10;0.10;;;4.40;99.90;;;;;;5005586;28;20096;-87
2024/02/04 02:36:45;;;;;;;0.10;0.10;;;4.40;99.90;;;;;;5014287;28;20068;-86
2024/02/04 02:39:19;;;;;;;0.10;0.10;;;4.50;99.90;;;;;;5012576;28;20064;-87
2024/02/04 02:41:54;;;;;;;0.10;0.10;;;4.40;99.90;;;;;;5011704;28;20030;-87
2024/02/04 02:44:21;;;;;;;0.22;0.22;;;4.40;99.90;;;;;;5040409;28;20046;-88
2024/02/04 02:46:47;;;;;;;0.10;0.10;;;4.30;99.90;;;;;;5011346;28;20113;-87
2024/02/04 02:49:13;;;;;;;1.98;1.77;;;4.30;99.90;;;;;;5011929;28;20631;-87
2024/02/04 02:51:39;;;;;;;0.50;0.50;;;4.40;99.90;;;;;;5008563;28;20157;-84
2024/02/04 02:54:05;;;;;;;0.10;0.10;;;4.40;99.90;;;;;;5010852;28;20097;-86
2024/02/04 02:56:30;;;;;;;0.10;0.10;;;4.40;99.90;;;;;;5017029;28;20030;-86
2024/02/04 02:58:56;;;;;;;0.17;0.17;;;4.30;99.90;;;;;;5002312;28;20136;-84
2024/02/04 03:01:23;;;;;;;0.10;0.10;;;4.00;99.90;;;;;;5008495;28;20030;-84
2024/02/04 03:03:49;;;;;;;;;;;3.80;99.90;;;;;;5010489;28;20605;-85
2024/02/04 03:06:15;;;;;;;0.10;0.10;;;3.90;99.90;;;;;;5007280;28;20079;-85
2024/02/04 03:08:40;;;;;;;0.10;0.10;;;4.00;99.90;;;;;;5010806;28;20831;-85
2024/02/04 03:11:06;;;;;;;0.30;0.30;;;4.40;99.90;;;;;;5008118;28;20038;-84
2024/02/04 03:13:31;;;;;;;0.10;0.10;;;4.50;99.90;;;;;;5007926;28;20030;-84
2024/02/04 03:15:57;;;;;;;0.30;0.30;;;4.30;99.90;;;;;;5006121;28;20060;-84
2024/02/04 03:18:23;;;;;;;0.15;0.15;;;4.30;99.90;;;;;;5009111;28;20033;-83
2024/02/04 03:20:48;;;;;;;0.10;0.10;;;4.30;99.90;;;;;;5008117;28;20030;-84
2024/02/04 03:23:14;;;;;;;0.10;0.10;;;4.10;99.90;;;;;;5008068;28;20608;-85
2024/02/04 03:25:40;;;;;;;0.10;0.10;;;4.30;99.90;;;;;;5009760;28;20600;-84
2024/02/04 03:28:06;;;;;;;0.10;0.10;;;4.10;99.90;;;;;;5011050;28;20057;-84
2024/02/04 03:30:31;;;;;;;0.40;0.40;;;4.30;99.90;;;;;;5006211;28;20061;-83
2024/02/04 03:32:57;;;;;;;0.10;0.10;;;4.50;99.90;;;;;;5011127;28;20033;-83
2024/02/04 03:35:22;;;;;;;0.30;0.30;;;4.50;99.90;;;;;;5009071;28;20061;-83
2024/02/04 03:37:48;;;;;;;0.10;0.10;;;4.40;99.90;;;;;;5012387;28;20676;-83
2024/02/04 03:40:14;;;;;;;0.32;0.32;;;4.20;99.90;;;;;;5012709;28;20509;-84
2024/02/04 03:42:40;;;;;;;0.52;0.47;;;4.00;99.90;;;;;;5007538;28;20409;-83
2024/02/04 03:45:06;;;;;;;0.10;0.10;;;4.00;99.90;;;;;;5008743;28;20033;-84
2024/02/04 03:47:32;;;;;;;0.45;0.40;;;4.20;99.90;;;;;;5000315;28;20030;-82
2024/02/04 03:49:57;;;;;;;0.10;0.10;;;4.20;99.90;;;;;;5007209;28;20129;-85
2024/02/04 03:52:23;;;;;;;0.10;0.10;;;4.30;99.90;;;;;;5012573;28;20471;-84
2024/02/04 03:54:49;;;;;;;0.20;0.20;;;4.30;99.90;;;;;;5010674;28;20100;-83
2024/02/04 03:57:14;;;;;;;0.47;0.47;;;4.30;99.90;;;;;;5010724;28;20746;-83
2024/02/04 03:59:40;;;;;;;0.10;0.10;;;4.30;99.90;;;;;;5009889;28;20041;-82
2024/02/04 04:02:05;;;;;;;0.20;0.20;;;4.00;99.90;;;;;;5010624;28;20048;-84
2024/02/04 04:04:31;;;;;;;0.10;0.10;;;4.00;99.90;;;;;;5008112;28;20033;-86
2024/02/04 04:06:58;;;;;;;0.30;0.30;;;4.20;99.90;;;;;;5006852;28;20109;-85
2024/02/04 04:09:23;;;;;;;0.20;0.20;;;4.10;99.90;;;;;;5010201;28;20845;-83
2024/02/04 04:11:49;;;;;;;0.20;0.20;;;4.10;99.90;;;;;;5008231;28;20207;-83
2024/02/04 04:14:15;;;;;;;0.20;0.20;;;4.00;99.90;;;;;;5007508;28;20109;-85
2024/02/04 04:16:40;;;;;;;0.30;0.30;;;4.10;99.90;;;;;;5007848;28;20026;-84
2024/02/04 04:19:06;;;;;;;0.10;0.10;;;3.90;99.90;;;;;;5008782;28;20044;-84
2024/02/04 04:21:32;;;;;;;0.10;0.10;;;4.00;99.90;;;;;;5005662;28;20108;-83
2024/02/04 04:23:58;;;;;;;0.57;0.57;;;4.20;99.90;;;;;;5006979;28;20117;-83
2024/02/04 04:26:24;;;;;;;0.10;0.10;;;3.80;99.90;;;;;;5006206;28;20034;-86
2024/02/04 04:28:49;;;;;;;0.10;0.10;;;3.70;99.90;;;;;;5008413;28;20032;-84
2024/02/04 04:31:15;;;;;;;0.10;0.10;;;3.70;99.90;;;;;;5007240;28;20025;-84
2024/02/04 04:33:41;;;;;;;0.10;0.10;;;3.80;99.90;;;;;;5010155;28;20137;-85
2024/02/04 04:36:06;;;;;;;0.10;0.10;;;4.00;99.90;;;;;;5005906;28;20044;-83
2024/02/04 04:38:32;;;;;;;0.20;0.20;;;4.20;99.90;;;;;;5011329;28;20026;-84
2024/02/04 04:40:58;;;;;;;0.10;0.10;;;4.20;99.90;;;;;;5008604;28;20029;-84
2024/02/04 04:43:24;;;;;;;0.30;0.30;;;4.10;99.90;;;;;;5006910;28;20425;-83
2024/02/04 04:45:49;;;;;;;0.73;0.73;;;3.90;99.90;;;;;;5008617;28;20022;-83
2024/02/04 04:48:15;;;;;;;0.10;0.10;;;3.90;99.90;;;;;;5007679;28;20026;-86
2024/02/04 04:50:41;;;;;;;0.32;0.32;;;3.90;99.90;;;;;;5010877;28;20104;-85
2024/02/04 04:53:07;;;;;;;0.10;0.10;;;4.10;99.90;;;;;;5009511;28;20037;-84
2024/02/04 04:55:32;;;;;;;0.10;0.10;;;4.10;99.90;;;;;;5011931;28;20018;-85
2024/02/04 04:57:58;;;;;;;0.10;0.10;;;3.80;99.90;;;;;;5010328;28;20034;-84
2024/02/04 05:00:24;;;;;;;0.10;0.10;;;3.60;99.90;;;;;;5007063;28;20464;-84
2024/02/04 05:02:58;;;;;;;1.40;1.35;;;3.70;99.90;;;;;;5005555;28;20509;-83
2024/02/04 05:05:24;;;;;;;0.20;0.20;;;3.80;99.90;;;;;;5008886;28;20033;-82
2024/02/04 05:07:50;;;;;;;0.10;0.10;;;3.70;99.90;;;;;;5007249;28;20034;-83
2024/02/04 05:10:15;;;;;;;0.10;0.10;;;3.60;99.90;;;;;;5012426;28;20036;-83
2024/02/04 05:12:41;;;;;;;0.20;0.20;;;3.70;99.90;;;;;;5006038;28;20508;-82
2024/02/04 05:15:07;;;;;;;0.10;0.10;;;3.80;99.90;;;;;;5004881;28;20030;-83
2024/02/04 05:17:33;;;;;;;0.10;0.10;;;4.00;99.90;;;;;;5007183;28;20040;-84
2024/02/04 05:19:59;;;;;;;0.10;0.10;;;3.80;99.90;;;;;;5008623;28;20030;-85
2024/02/04 05:22:25;;;;;;;0.10;0.10;;;4.00;99.90;;;;;;5008862;28;20141;-85
2024/02/04 05:24:50;;;;;;;3.58;1.45;;;4.00;99.90;;;;;;5007188;28;20060;-83
2024/02/04 05:27:16;;;;;;;5.30;1.65;;;4.00;99.90;;;;;;5006835;28;20038;-85
2024/02/04 05:29:42;;;;;;;0.47;0.47;;;4.00;99.90;;;;;;5010500;28;20842;-87
2024/02/04 05:32:07;;;;;;;3.13;1.17;;;4.10;99.90;;;;;;5011801;28;20061;-84
2024/02/04 05:34:34;;;;;;;0.15;0.15;;;3.90;99.90;;;;;;5011021;28;20513;-84
2024/02/04 05:37:00;;;;;;;0.10;0.10;;;4.00;99.90;;;;;;5003795;28;20770;-83
2024/02/04 05:39:25;;;;;;;0.10;0.10;;;3.90;99.90;;;;;;5012255;28;20554;-83
2024/02/04 05:41:51;;;;;;;0.10;0.10;;;3.80;99.90;;;;;;5011493;28;20033;-83
2024/02/04 05:44:17;;;;;;;0.10;0.10;;;3.70;99.90;;;;;;5006834;28;20482;-82
2024/02/04 05:46:42;;;;;;;0.10;0.10;;;3.80;99.90;;;;;;5005947;28;20029;-84
2024/02/04 05:49:08;;;;;;;0.20;0.20;;;3.60;99.90;;;;;;5006917;28;20033;-84
2024/02/04 05:51:39;;;;;;;0.10;0.10;;;3.70;99.90;;;;;;5008698;28;20030;-85
2024/02/04 05:54:05;;;;;;;0.10;0.10;;;3.60;99.90;;;;;;5005358;28;20034;-85
2024/02/04 05:56:30;;;;;;;0.17;0.17;;;3.60;99.90;;;;;;5007621;28;20033;-87
2024/02/04 05:58:56;;;;;;;0.10;0.10;;;3.40;99.90;;;;;;5006508;28;20022;-87
2024/02/04 06:01:22;;;;;;;0.10;0.10;;;3.70;99.90;;;;;;5008561;28;20120;-88
2024/02/04 06:03:47;;;;;;;0.10;0.10;;;3.70;99.90;;;;;;5012462;28;20173;-88
2024/02/04 06:06:19;;;;;;;0.10;0.10;;;3.60;99.90;;;;;;5008808;28;20037;-88
2024/02/04 06:08:45;;;;;;;0.10;0.10;;;3.80;99.90;;;;;;5008307;28;20038;-85
2024/02/04 06:11:15;;;;;;;0.10;0.10;;;3.40;99.90;;;;;;5011552;28;20037;-83
2024/02/04 06:13:42;;;;;;;0.10;0.10;;;3.60;99.90;;;;;;5012529;28;20084;-84
2024/02/04 06:16:07;;;;;;;;;;;3.60;99.90;;;;;;5010005;28;20113;-81
2024/02/04 06:18:35;;;;;;;0.40;0.40;;;3.70;99.90;;;;;;5009949;28;20004;-83
2024/02/04 06:21:00;;;;;;;0.10;0.10;;;3.70;99.90;;;;;;5009365;28;20088;-86
2024/02/04 06:23:26;;;;;;;0.10;0.10;;;3.40;99.90;;;;;;5008307;28;20038;-85
2024/02/04 06:25:51;;;;;;;0.10;0.10;;;3.30;99.90;;;;;;5010561;28;20034;-83
2024/02/04 06:28:17;;;;;;;0.10;0.10;;;3.40;99.90;;;;;;5013544;28;20030;-84
2024/02/04 06:30:43;;;;;;;0.10;0.10;;;3.40;99.90;;;;;;5011122;28;20036;-84
2024/02/04 06:33:08;;;;;;;0.10;0.10;;;3.40;99.90;;;;;;5009292;28;20026;-84
2024/02/04 06:35:34;;;;;;;0.10;0.10;;;3.40;99.90;;;;;;5011907;28;20045;-87
2024/02/04 06:38:00;;;;;;;0.20;0.20;;;3.50;99.90;;;;;;5013443;28;20569;-83
2024/02/04 06:40:25;;;;;;;0.10;0.10;;;3.70;99.90;;;;;;5012654;28;20769;-85
2024/02/04 06:42:51;;;;;;;0.10;0.10;;;3.50;99.90;;;;;;5013593;28;20421;-85
2024/02/04 06:45:17;;;;;;;0.10;0.10;;;3.40;99.90;;;;;;5012153;28;20774;-81
2024/02/04 06:47:45;;;;;;;0.10;0.10;;;3.10;99.90;;;;;;5008773;28;20485;-82
2024/02/04 06:50:15;;;;;;;0.15;0.15;;;3.10;99.90;;;;;;5012980;28;20043;-81
2024/02/04 06:52:42;;;;;;;0.10;0.10;;;3.00;99.90;;;;;;5005028;28;20084;-82
2024/02/04 06:55:08;;;;;;;0.10;0.10;;;3.20;99.90;;;;;;5013411;28;20029;-82
2024/02/04 06:57:34;;;;;;;1.45;0.22;;;3.30;99.90;;;;;;5011679;28;20038;-84
2024/02/04 07:00:00;;;;;;;0.10;0.10;;;3.30;99.90;;;;;;5005993;28;20057;-83
2024/02/04 07:02:25;;;;;;;0.10;0.10;;;3.40;99.90;;;;;;5010886;28;20053;-82
2024/02/04 07:04:51;;;;;;;0.35;0.32;;;3.30;99.90;;;;;;5010114;28;20169;-84
2024/02/04 07:07:16;;;;;;;0.10;0.10;;;3.40;99.90;;;;;;5012075;28;20038;-85
2024/02/04 07:09:42;;;;;;;0.10;0.10;;;3.40;99.90;;;;;;5009937;28;20025;-82
2024/02/04 07:12:08;;;;;;;0.10;0.10;;;3.30;99.90;;;;;;5011442;28;20033;-82
2024/02/04 07:14:33;;;;;;;0.03;0.03;;;3.30;99.90;;;;;;5006415;28;20040;-81
2024/02/04 07:16:59;;;;;;;1.38;1.27;;;3.30;99.90;;;;;;5010235;28;20152;-81
2024/02/04 07:19:25;;;;;;;1.25;0.98;;;3.20;99.90;;;;;;5009501;28;20136;-84
2024/02/04 07:21:50;;;;;;;0.10;0.10;;;3.40;99.90;;;;;;5007416;28;20173;-81
2024/02/04 07:24:16;;;;;;;0.10;0.10;;;3.50;99.90;;;;;;5007791;28;20030;-81
2024/02/04 07:26:42;;;;;;;0.10;0.10;;;3.50;99.90;;;;;;5011267;28;20037;-83
2024/02/04 07:29:07;;;;;;;0.10;0.10;;;3.40;99.90;;;;;;5012562;28;20492;-84
2024/02/04 07:31:37;;;;;;;0.10;0.10;;;3.40;99.90;;;;;;5006623;28;20045;-81
2024/02/04 07:34:03;;;;;;;0.10;0.10;;;3.30;99.90;;;;;;5008278;28;20113;-81
2024/02/04 07:36:29;;;;;;;0.10;0.10;;;3.30;99.90;;;;;;5011879;28;20164;-83
2024/02/04 07:38:54;;;;;;;0.45;0.43;;;3.20;99.90;;;;;;5013255;28;20037;-80
2024/02/04 07:41:20;;;;;;;0.30;0.30;;;3.30;99.90;;;;;;5012596;28;20030;-82
2024/02/04 07:43:46;;;;;;;0.10;0.10;;;3.20;99.90;;;;;;5007723;28;20058;-81
2024/02/04 07:46:11;;;;;;;0.10;0.10;;;3.10;99.90;;;;;;5008039;28;20033;-80
2024/02/04 07:48:37;;;;;;;0.10;0.10;;;2.90;99.90;;;;;;5005868;28;20528;-81
2024/02/04 07:51:03;;;;;;;0.10;0.10;;;3.10;99.90;;;;;;5010114;28;20026;-84
2024/02/04 07:53:28;;;;;;;0.10;0.10;;;3.10;99.90;;;;;;5012219;28;20809;-81
2024/02/04 07:55:54;;;;;;;0.13;0.13;;;3.00;99.90;;;;;;5014062;28;20088;-82
2024/02/04 07:58:21;;;;;;;0.25;0.25;;;3.00;99.90;;;;;;5002996;28;20751;-83
2024/02/04 08:00:47;;;;;;;;;;;3.00;99.90;;;;;;5011030;28;20095;-83
2024/02/04 08:03:12;;;;;;;0.10;0.10;;;3.10;99.90;;;;;;5008586;28;20475;-81
2024/02/04 08:05:39;;;;;;;0.52;0.52;;;3.20;99.90;;;;;;5020442;28;20132;-80
2024/02/04 08:08:04;;;;;;;0.10;0.10;;;3.20;99.90;;;;;;5009794;28;20036;-82
2024/02/04 08:10:30;;;;;;;0.50;0.50;;;3.00;99.90;;;;;;5008589;28;20105;-85
2024/02/04 08:12:56;;;;;;;0.20;0.20;;;3.00;99.90;;;;;;5008289;28;20026;-84
2024/02/04 08:15:22;;;;;;;0.10;0.10;;;3.20;99.90;;;;;;5009313;28;20042;-83
2024/02/04 08:17:48;;;;;;;0.10;0.10;;;3.00;99.90;;;;;;5006938;28;20104;-85
2024/02/04 08:20:13;;;;;;;0.10;0.10;;;3.30;99.90;;;;;;5008388;28;20116;-84
2024/02/04 08:22:39;;;;;;;0.10;0.10;;;3.70;99.90;;;;;;5003903;28;20534;-79
2024/02/04 08:25:05;;;;;;;0.10;0.10;;;3.60;99.90;;;;;;5007444;28;20038;-80
2024/02/04 08:27:31;;;;;;;0.38;0.38;;;3.70;99.90;;;;;;5007834;28;20037;-82
2024/02/04 08:29:57;;;;;;;0.10;0.10;;;4.10;99.90;;;;;;5005185;28;20030;-80
2024/02/04 08:32:23;;;;;;;0.10;0.10;;;3.90;99.90;;;;;;5009399;28;20114;-80
2024/02/04 08:34:49;;;;;;;0.10;0.10;;;3.90;99.90;;;;;;5009010;28;20092;-81
2024/02/04 08:37:14;;;;;;;0.10;0.10;;;3.60;99.90;;;;;;5005542;28;20021;-81
2024/02/04 08:39:40;;;;;;;0.10;0.10;;;3.80;99.90;;;;;;5012384;28;20122;-82
2024/02/04 08:42:06;;;;;;;7.30;3.40;;;3.90;99.90;;;;;;5006902;28;20034;-82
2024/02/04 08:44:31;;;;;;;0.10;0.10;;;4.00;99.90;;;;;;5008678;28;20053;-82
2024/02/04 08:46:57;;;;;;;0.10;0.10;;;3.80;99.90;;;;;;5006255;28;20061;-82
2024/02/04 08:49:23;;;;;;;0.37;0.37;;;3.90;99.90;;;;;;5008515;28;20060;-82
2024/02/04 08:51:49;;;;;;;0.10;0.10;;;3.90;99.90;;;;;;5006371;28;20713;-82
2024/02/04 08:54:14;;;;;;;0.10;0.10;;;3.60;99.90;;;;;;5010689;28;20024;-82
2024/02/04 08:56:40;;;;;;;0.10;0.10;;;3.60;99.90;;;;;;5012658;28;20061;-82
2024/02/04 08:59:06;;;;;;;0.10;0.10;;;3.60;99.90;;;;;;5000513;28;20412;-81
2024/02/04 09:01:32;;;;;;;0.20;0.20;;;3.60;99.90;;;;;;5004223;28;20435;-84
2024/02/04 09:03:57;;;;;;;0.10;0.10;;;3.60;99.90;;;;;;5008229;28;20065;-82
2024/02/04 09:06:23;;;;;;;0.30;0.30;;;3.70;99.90;;;;;;5006554;28;20082;-82
2024/02/04 09:08:49;;;;;;;0.10;0.10;;;3.80;99.90;;;;;;5009903;28;20623;-83
2024/02/04 09:11:18;;;;;;;0.10;0.10;;;4.10;99.90;;;;;;5009518;28;20033;-82
2024/02/04 09:13:45;;;;;;;0.10;0.10;;;4.10;99.90;;;;;;5011169;28;20561;-82
2024/02/04 09:16:11;;;;;;;0.10;0.10;;;4.40;99.90;;;;;;5000825;28;20767;-82
2024/02/04 09:18:37;;;;;;;0.10;0.10;;;4.40;99.90;;;;;;5006903;28;20064;-80
2024/02/04 09:21:03;;;;;;;0.10;0.10;;;4.40;99.90;;;;;;5006894;28;20563;-81
2024/02/04 09:23:28;;;;;;;0.10;0.10;;;4.60;99.90;;;;;;5007766;28;20037;-81
2024/02/04 09:25:54;;;;;;;0.10;0.10;;;5.00;99.90;;;;;;5006459;28;20739;-81
2024/02/04 09:28:20;;;;;;;0.00;0.00;;;4.90;99.90;;;;;;5007634;28;20445;-81
2024/02/04 09:30:46;;;;;;;0.10;0.10;;;4.70;99.90;;;;;;5007088;28;20033;-81
2024/02/04 09:33:14;;;;;;;0.10;0.10;;;4.80;99.90;;;;;;5007349;28;20355;-81
2024/02/04 09:35:39;;;;;;;0.10;0.10;;;4.80;99.90;;;;;;5010841;28;20022;-80
2024/02/04 09:38:06;;;;;;;0.10;0.10;;;5.40;99.90;;;;;;5011144;28;20025;-81
2024/02/04 09:40:32;;;;;;;0.10;0.10;;;5.80;99.90;;;;;;5016381;28;20150;-81
2024/02/04 09:42:58;;;;;;;0.10;0.10;;;6.30;99.90;;;;;;5016014;28;20427;-82
2024/02/04 09:45:25;;;;;;;0.10;0.10;;;6.30;99.90;;;;;;5015543;28;20034;-80
2024/02/04 09:47:53;;;;;;;0.10;0.10;;;6.00;99.90;;;;;;5016618;28;20029;-82
2024/02/04 09:50:20;;;;;;;0.10;0.10;;;5.40;99.90;;;;;;5018629;28;20033;-81
2024/02/04 09:52:50;;;;;;;0.10;0.10;;;5.10;99.90;;;;;;5017318;28;20030;-81
2024/02/04 09:55:17;;;;;;;0.90;0.90;;;4.90;99.90;;;;;;5019820;28;20710;-81
2024/02/04 09:57:44;;;;;;;0.10;0.10;;;5.10;99.90;;;;;;5011821;28;20033;-80
2024/02/04 10:00:11;;;;;;;0.10;0.10;;;4.90;99.90;;;;;;5010440;28;20037;-81
2024/02/04 10:02:37;;;;;;;4.10;0.95;;;5.00;99.90;;;;;;5012954;28;20034;-81
2024/02/04 10:05:03;;;;;;;0.10;0.10;;;5.10;99.90;;;;;;5011032;28;20033;-81
2024/02/04 10:07:29;;;;;;;0.10;0.10;;;5.40;99.90;;;;;;5014646;28;20057;-81
2024/02/04 10:09:55;;;;;;;0.10;0.10;;;5.70;99.90;;;;;;5008918;28;20524;-83
2024/02/04 10:12:21;;;;;;;0.10;0.10;;;5.60;99.90;;;;;;5010144;28;20033;-84
2024/02/04 10:14:49;;;;;;;0.10;0.10;;;5.90;99.90;;;;;;5003606;28;20030;-84
2024/02/04 10:17:20;;;;;;;0.10;0.10;;;6.20;99.90;;;;;;5012309;28;20076;-82
2024/02/04 10:19:48;;;;;;;0.10;0.10;;;6.70;99.90;;;;;;5018044;28;20055;-80
2024/02/04 10:22:14;;;;;;;0.10;0.10;;;7.60;99.90;;;;;;5017365;28;20036;-85
2024/02/04 10:24:39;;;;;;;0.10;0.10;;;8.30;99.90;;;;;;5009584;28;20030;-85
2024/02/04 10:27:05;;;;;;;0.10;0.10;;;8.70;99.90;;;;;;5015185;28;20077;-84
2024/02/04 10:29:31;;;;;;;0.10;0.10;;;8.50;99.10;;;;;;5024790;28;20033;-86
2024/02/04 10:31:57;;;;;;;0.10;0.10;;;8.60;99.60;;;;;;5012598;28;20040;-87
2024/02/04 10:34:27;;;;;;;0.07;0.07;;;8.50;99.60;;;;;;5008890;28;20029;-86
2024/02/04 10:36:53;;;;;;;0.10;0.10;;;8.40;99.90;;;;;;5009719;28;20021;-85
2024/02/04 10:39:19;;;;;;;0.13;0.13;;;7.90;99.90;;;;;;5015786;28;20153;-83
2024/02/04 10:41:52;;;;;;;0.20;0.20;;;7.60;99.90;;;;;;5014575;28;20026;-83
2024/02/04 10:44:22;;;;;;;0.08;0.08;;;7.70;99.90;;;;;;5010661;28;20164;-84
2024/02/04 10:46:49;;;;;;;0.10;0.10;;;8.10;99.90;;;;;;5011327;28;20037;-84
2024/02/04 10:49:15;;;;;;;;;;;7.80;99.90;;;;;;5014851;28;20042;-85
2024/02/04 10:51:42;;;;;;;0.10;0.10;;;7.80;99.90;;;;;;5016806;28;19909;-83
2024/02/04 10:54:08;;;;;;;;;;;8.10;99.90;;;;;;5014220;28;20034;-84
2024/02/04 10:56:41;;;;;;;0.00;0.00;;;7.90;99.90;;;;;;5017496;28;19963;-83
2024/02/04 10:59:09;;;;;;;0.22;0.22;;;7.50;99.90;;;;;;5000317;28;20105;-83
2024/02/04 11:01:36;;;;;;;0.30;0.30;;;7.50;99.90;;;;;;5009162;28;20037;-83
2024/02/04 11:04:02;;;;;;;;;;;7.90;99.90;;;;;;5015694;28;20061;-81
2024/02/04 11:06:29;;;;;;;0.00;0.00;;;8.20;99.90;;;;;;5011780;28;20448;-81
2024/02/04 11:08:57;;;;;;;0.10;0.10;;;8.30;99.90;;;;;;5011281;28;20124;-80
2024/02/04 11:11:24;;;;;;;0.10;0.10;;;8.20;99.90;;;;;;5009579;28;20021;-82
2024/02/04 11:13:53;;;;;;;0.00;0.00;;;8.50;99.90;;;;;;5008784;28;20555;-82
2024/02/04 11:16:30;;;;;;;0.10;0.10;;;8.50;99.90;;;;;;5008356;28;20026;-81
2024/02/04 11:19:14;;;;;;;0.10;0.10;;;7.80;99.90;;;;;;5007625;28;20030;-82
2024/02/04 11:22:20;;;;;;;0.10;0.10;;;7.60;99.90;;;;;;5007644;28;21019;-83
2024/02/04 11:25:23;;;;;;;0.10;0.10;;;7.60;99.90;;;;;;4966237;28;20041;-82
2024/02/04 11:27:48;;;;;;;0.08;0.08;;;7.40;99.90;;;;;;5008239;28;20028;-82
2024/02/04 11:30:15;;;;;;;0.10;0.10;;;7.50;99.90;;;;;;5010006;28;20025;-82
2024/02/04 11:32:41;;;;;;;0.10;0.10;;;7.50;99.90;;;;;;5008644;28;20042;-83
2024/02/04 11:35:08;;;;;;;0.50;0.50;;;7.40;99.90;;;;;;5011792;28;20110;-83
2024/02/04 11:37:34;;;;;;;0.10;0.10;;;7.40;99.90;;;;;;5007799;28;20022;-81
2024/02/04 11:39:59;;;;;;;0.10;0.10;;;7.50;99.90;;;;;;5006567;28;20159;-81
2024/02/04 11:42:31;;;;;;;0.52;0.52;;;7.60;99.90;;;;;;5007516;28;20584;-80
2024/02/04 11:45:07;;;;;;;1.02;0.88;;;7.60;99.90;;;;;;5010231;28;20041;-82
2024/02/04 11:47:35;;;;;;;0.00;0.00;;;8.00;99.90;;;;;;5008601;28;20509;-82
2024/02/04 11:50:01;;;;;;;0.10;0.10;;;8.00;99.90;;;;;;5009902;28;20037;-81
2024/02/04 11:52:28;;;;;;;0.10;0.10;;;8.20;99.90;;;;;;5005763;28;20057;-81
2024/02/04 11:54:54;;;;;;;0.10;0.10;;;8.60;99.90;;;;;;5012386;28;20105;-82
2024/02/04 11:57:20;;;;;;;0.70;0.68;;;8.70;99.90;;;;;;5008181;28;20106;-82
2024/02/04 11:59:47;;;;;;;0.10;0.10;;;8.80;99.90;;;;;;5006748;28;20235;-81
2024/02/04 12:02:16;;;;;;;0.10;0.10;;;8.90;99.90;;;;;;5006063;28;20084;-82
2024/02/04 12:04:43;;;;;;;0.10;0.10;;;9.10;99.90;;;;;;5009256;28;20033;-80
2024/02/04 12:07:09;;;;;;;0.10;0.10;;;9.30;99.90;;;;;;5010913;28;20623;-85
2024/02/04 12:09:35;;;;;;;0.00;0.00;;;9.50;99.90;;;;;;5009125;28;20034;-84
2024/02/04 12:12:03;;;;;;;2.63;1.95;;;9.20;99.90;;;;;;5010295;28;20125;-85
2024/02/04 12:14:29;;;;;;;1.17;0.95;;;9.10;99.90;;;;;;5007282;28;20030;-86
2024/02/04 12:16:59;;;;;;;0.10;0.10;;;8.90;99.90;;;;;;5009055;28;20049;-79
2024/02/04 12:19:24;;;;;;;0.35;0.35;;;8.70;99.90;;;;;;5001186;28;20025;-81
2024/02/04 12:21:50;;;;;;;0.03;0.03;;;8.40;99.90;;;;;;5011465;28;20041;-83
2024/02/04 12:24:16;;;;;;;0.00;0.00;;;8.20;99.90;;;;;;5006902;28;20038;-83
2024/02/04 12:26:45;;;;;;;0.22;0.22;;;8.20;99.90;;;;;;5003781;28;20046;-78
2024/02/04 12:29:11;;;;;;;0.10;0.10;;;8.30;99.90;;;;;;5001221;28;20815;-78
2024/02/04 12:31:37;;;;;;;0.22;0.22;;;8.30;99.90;;;;;;5007769;28;20910;-78
2024/02/04 12:34:03;;;;;;;0.10;0.10;;;8.40;99.90;;;;;;5008285;28;20037;-79
2024/02/04 12:36:30;;;;;;;0.10;0.10;;;8.10;99.90;;;;;;5010905;28;20045;-82
2024/02/04 12:39:01;;;;;;;0.10;0.10;;;8.00;99.90;;;;;;5009495;28;20022;-83
2024/02/04 12:41:28;;;;;;;1.63;1.55;;;7.90;99.90;;;;;;5009633;28;20475;-82
2024/02/04 12:43:59;;;;;;;0.10;0.10;;;7.80;99.90;;;;;;5010543;28;20081;-88
2024/02/04 12:46:24;;;;;;;1.27;1.27;;;7.90;99.90;;;;;;5009942;28;20030;-93
2024/02/04 12:48:58;;;;;;;0.10;0.10;;;7.80;99.90;;;;;;5007330;28;20028;-90
2024/02/04 12:51:24;;;;;;;0.10;0.10;;;7.80;99.90;;;;;;5006974;28;20030;-88
2024/02/04 12:53:50;;;;;;;0.10;0.10;;;7.70;99.90;;;;;;5011614;28;20105;-85
2024/02/04 12:56:16;;;;;;;0.20;0.20;;;7.70;99.90;;;;;;5012262;28;20046;-91